PGM weather

Public forecast

Using degrees Fahrenheit for public forecast. Weather courtesy of forecast.io.

Closest aviation weather report (METAR) to Port Graham Airport

Closest report is Seldovia Airport, 6.9 nm (12.7 km) NE. Retrieved 2020/08/12 00:18 UTC (0 seconds ago):

PASO 120018Z AUTO 02004KT 6SM -RA BR FEW006 OVC050 13/12 A2994 RMK AO2 P0002 T01330122 TSNO

Closest aviation forecast (TAF) to Port Graham Airport

Closest forecast is Homer Airport, 20.9 nm (38.7 km) NNE. Retrieved 2020-08-12 00:22 UTC (0 seconds ago):

TAF PAHO 112320Z 1200/1224 25012G18KT P6SM VCSH SCT050 BKN100 FM120500 VRB04KT P6SM SCT050 BKN100